createdAt,value
2018-03-21T00:01:11.285Z,82.32
2018-03-21T00:03:38.841Z,82.86
2018-03-21T00:06:06.305Z,83.64
2018-03-21T00:08:33.759Z,83.95
2018-03-21T00:11:01.228Z,84.25
2018-03-21T00:13:28.699Z,84.70
2018-03-21T00:15:56.141Z,85.35
2018-03-21T00:18:23.591Z,85.44
2018-03-21T00:20:51.054Z,85.86
2018-03-21T00:23:18.502Z,86.37
2018-03-21T00:25:45.957Z,86.59
2018-03-21T00:28:13.435Z,86.63
2018-03-21T00:30:40.887Z,87.03
2018-03-21T00:33:08.346Z,87.24
2018-03-21T00:35:35.813Z,87.10
2018-03-21T00:38:03.258Z,86.98
2018-03-21T00:40:30.739Z,86.86
2018-03-21T00:42:58.173Z,86.79
2018-03-21T00:45:25.618Z,86.76
2018-03-21T00:47:53.061Z,86.67
2018-03-21T00:50:20.546Z,86.58
2018-03-21T00:52:48.083Z,86.50
2018-03-21T00:55:15.532Z,86.61
2018-03-21T00:57:42.997Z,86.34
2018-03-21T01:00:10.453Z,86.57
2018-03-21T01:02:38.015Z,86.72
2018-03-21T01:05:05.470Z,87.03
2018-03-21T01:07:33.007Z,86.91
2018-03-21T01:10:00.492Z,87.00
2018-03-21T01:12:27.929Z,86.97
2018-03-21T01:14:55.382Z,87.41
2018-03-21T01:17:22.916Z,87.36
2018-03-21T01:19:56.414Z,87.42
2018-03-21T01:22:24.296Z,87.31
2018-03-21T01:24:51.752Z,87.26
2018-03-21T01:27:19.203Z,86.90
2018-03-21T01:29:46.644Z,86.69
2018-03-21T01:32:14.089Z,87.12
2018-03-21T01:34:41.661Z,87.14
2018-03-21T01:37:09.177Z,87.03
2018-03-21T01:39:36.631Z,87.39
2018-03-21T01:42:05.194Z,87.67
2018-03-21T01:44:32.651Z,87.94
2018-03-21T01:47:00.138Z,87.85
2018-03-21T01:49:27.585Z,87.82
2018-03-21T01:51:55.074Z,87.83
2018-03-21T01:54:23.266Z,87.90
2018-03-21T01:56:50.724Z,88.15
2018-03-21T01:59:18.197Z,87.89
2018-03-21T02:01:45.643Z,88.06
2018-03-21T02:04:13.144Z,88.14
2018-03-21T02:06:40.613Z,88.11
2018-03-21T02:09:08.134Z,88.37
2018-03-21T02:11:35.574Z,87.82
2018-03-21T02:14:03.033Z,87.78
2018-03-21T02:16:30.484Z,87.79
2018-03-21T02:18:57.934Z,87.95
2018-03-21T02:21:25.373Z,88.41
2018-03-21T02:23:52.832Z,88.45
2018-03-21T02:26:20.277Z,89.01
2018-03-21T02:28:48.161Z,88.81
2018-03-21T02:31:15.634Z,89.01
2018-03-21T02:33:43.090Z,89.01
2018-03-21T02:36:10.586Z,89.01
2018-03-21T02:38:38.035Z,89.34
2018-03-21T02:41:05.500Z,88.89
2018-03-21T02:43:32.968Z,89.02
2018-03-21T02:46:00.422Z,88.99
2018-03-21T02:48:27.897Z,88.78
2018-03-21T02:50:55.340Z,88.67
2018-03-21T02:53:22.793Z,89.16
2018-03-21T02:55:50.247Z,88.87
2018-03-21T02:58:17.710Z,89.17
2018-03-21T03:00:45.163Z,89.16
2018-03-21T03:03:12.810Z,89.27
2018-03-21T03:05:40.264Z,88.89
2018-03-21T03:08:07.709Z,88.53
2018-03-21T03:10:35.229Z,88.30
2018-03-21T03:13:02.681Z,88.06
2018-03-21T03:15:30.171Z,88.02
2018-03-21T03:17:57.619Z,87.92
2018-03-21T03:20:25.072Z,88.06
2018-03-21T03:22:52.528Z,87.98
2018-03-21T03:25:20.034Z,87.95
2018-03-21T03:27:47.491Z,87.71
2018-03-21T03:30:14.956Z,87.94
2018-03-21T03:32:42.469Z,87.97
2018-03-21T03:35:09.918Z,88.22
2018-03-21T03:37:37.395Z,88.08
2018-03-21T03:40:04.834Z,88.19
2018-03-21T03:42:32.286Z,88.41
2018-03-21T03:44:59.796Z,88.53
2018-03-21T03:47:27.271Z,88.48
2018-03-21T03:49:54.740Z,88.47
2018-03-21T03:52:22.210Z,88.99
2018-03-21T03:54:49.701Z,88.60
2018-03-21T03:57:17.151Z,88.58
2018-03-21T03:59:44.604Z,88.70
2018-03-21T04:02:12.058Z,88.46
2018-03-21T04:04:39.530Z,89.18
2018-03-21T04:07:06.984Z,88.91
2018-03-21T04:09:34.485Z,88.60
2018-03-21T04:12:01.936Z,88.56
2018-03-21T04:14:29.418Z,88.53
2018-03-21T04:16:56.933Z,88.71
2018-03-21T04:19:24.393Z,88.60
2018-03-21T04:21:51.883Z,89.46
2018-03-21T04:24:19.335Z,89.43
2018-03-21T04:26:46.798Z,89.35
2018-03-21T04:29:14.255Z,89.20
2018-03-21T04:31:41.731Z,89.49
2018-03-21T04:34:09.203Z,89.72
2018-03-21T04:36:36.786Z,89.15
2018-03-21T04:39:04.278Z,89.40
2018-03-21T04:41:31.726Z,89.79
2018-03-21T04:43:59.174Z,89.79
2018-03-21T04:46:27.967Z,89.33
2018-03-21T04:48:55.416Z,88.93
2018-03-21T04:51:22.856Z,88.63
2018-03-21T04:53:50.310Z,88.69
2018-03-21T04:56:17.758Z,88.22
2018-03-21T04:58:45.252Z,88.27
2018-03-21T05:01:12.706Z,88.25
2018-03-21T05:03:40.202Z,88.94
2018-03-21T05:06:07.650Z,88.88
2018-03-21T05:08:35.121Z,88.87
2018-03-21T05:11:02.938Z,88.94
2018-03-21T05:13:30.541Z,89.21
2018-03-21T05:15:58.218Z,88.70
2018-03-21T05:18:25.794Z,89.05
2018-03-21T05:20:53.266Z,88.86
2018-03-21T05:23:20.711Z,89.11
2018-03-21T05:25:48.170Z,89.10
2018-03-21T05:28:15.616Z,88.83
2018-03-21T05:30:43.092Z,88.86
2018-03-21T05:33:10.529Z,88.50
2018-03-21T05:35:37.994Z,88.58
2018-03-21T05:38:05.446Z,88.29
2018-03-21T05:40:32.897Z,88.39
2018-03-21T05:43:00.362Z,87.74
2018-03-21T05:45:27.851Z,87.92
2018-03-21T05:47:55.326Z,87.85
2018-03-21T05:50:22.791Z,87.54
2018-03-21T05:52:50.277Z,87.44
2018-03-21T05:55:18.678Z,87.51
2018-03-21T05:57:46.130Z,87.47
2018-03-21T06:00:13.576Z,87.09
2018-03-21T06:02:41.627Z,86.51
2018-03-21T06:05:09.274Z,85.78
2018-03-21T06:07:36.742Z,85.32
2018-03-21T06:10:04.204Z,85.13
2018-03-21T06:12:31.666Z,84.87
2018-03-21T06:14:59.152Z,84.27
2018-03-21T06:17:26.588Z,83.77
2018-03-21T06:19:54.046Z,83.76
2018-03-21T06:22:21.494Z,83.32
2018-03-21T06:24:48.996Z,82.75
2018-03-21T06:27:16.741Z,82.54
2018-03-21T06:29:44.186Z,82.11
2018-03-21T06:32:11.714Z,81.86
2018-03-21T06:34:39.163Z,81.48
2018-03-21T06:37:07.665Z,81.96
2018-03-21T06:39:35.317Z,81.27
2018-03-21T06:42:02.784Z,81.12
2018-03-21T06:44:30.356Z,80.76
2018-03-21T06:46:57.824Z,81.01
2018-03-21T06:49:25.269Z,80.43
2018-03-21T06:51:52.720Z,80.03
2018-03-21T06:54:20.173Z,79.44
2018-03-21T06:56:47.625Z,79.35
2018-03-21T06:59:15.094Z,78.42
2018-03-21T07:01:42.559Z,78.30
2018-03-21T07:04:10.005Z,78.44
2018-03-21T07:06:37.469Z,78.13
2018-03-21T07:09:04.929Z,77.79
2018-03-21T07:11:32.390Z,77.75
2018-03-21T07:14:13.205Z,77.30
2018-03-21T07:16:50.982Z,76.75
2018-03-21T07:19:18.510Z,76.70
2018-03-21T07:21:46.122Z,75.64
2018-03-21T07:24:13.584Z,74.93
2018-03-21T07:26:41.032Z,73.86
2018-03-21T07:29:08.575Z,73.11
2018-03-21T07:31:36.039Z,73.65
2018-03-21T07:34:03.493Z,72.25
2018-03-21T07:36:30.971Z,72.54
2018-03-21T07:38:58.409Z,71.23
2018-03-21T07:41:25.862Z,70.96
2018-03-21T07:43:53.322Z,71.62
2018-03-21T07:46:20.765Z,69.92
2018-03-21T07:48:48.214Z,70.00
2018-03-21T07:51:15.665Z,69.61
2018-03-21T07:53:43.117Z,68.61
2018-03-21T07:56:10.562Z,68.19
2018-03-21T07:58:38.013Z,67.92
2018-03-21T08:01:05.454Z,68.40
2018-03-21T08:03:32.917Z,66.88
2018-03-21T08:06:00.381Z,66.55
2018-03-21T08:08:34.061Z,65.53
2018-03-21T08:11:01.573Z,64.74
2018-03-21T08:13:29.030Z,64.00
2018-03-21T08:15:56.487Z,64.44
2018-03-21T08:18:23.950Z,63.49
2018-03-21T08:20:51.637Z,60.92
2018-03-21T08:23:19.124Z,60.22
2018-03-21T08:25:46.602Z,60.00
2018-03-21T08:28:14.054Z,59.75
2018-03-21T08:30:41.533Z,58.55
2018-03-21T08:33:09.013Z,57.68
2018-03-21T08:35:36.450Z,57.72
2018-03-21T08:38:03.936Z,57.55
2018-03-21T08:40:31.449Z,55.98
2018-03-21T08:42:58.894Z,56.13
2018-03-21T08:45:26.331Z,55.23
2018-03-21T08:47:53.809Z,54.33
2018-03-21T08:50:21.277Z,51.87
2018-03-21T08:52:48.738Z,52.18
2018-03-21T08:55:16.211Z,51.54
2018-03-21T08:57:43.652Z,52.47
2018-03-21T09:00:11.090Z,51.16
2018-03-21T09:02:38.555Z,49.08
2018-03-21T09:05:06.017Z,50.01
2018-03-21T09:07:33.471Z,48.82
2018-03-21T09:10:00.920Z,49.21
2018-03-21T09:12:28.378Z,46.38
2018-03-21T09:14:55.825Z,45.73
2018-03-21T09:17:23.271Z,46.47
2018-03-21T09:19:50.712Z,43.45
2018-03-21T09:22:18.181Z,43.16
2018-03-21T09:24:45.610Z,40.87
2018-03-21T09:27:13.052Z,40.93
2018-03-21T09:29:40.497Z,40.53
2018-03-21T09:32:07.970Z,39.80
2018-03-21T09:34:35.463Z,40.81
2018-03-21T09:37:02.898Z,38.18
2018-03-21T09:39:30.411Z,41.33
2018-03-21T09:41:57.874Z,39.85
2018-03-21T09:44:25.377Z,39.07
2018-03-21T09:46:52.789Z,38.48
2018-03-21T09:49:20.236Z,38.61
2018-03-21T09:51:47.694Z,37.82
2018-03-21T09:54:15.167Z,38.91
2018-03-21T09:56:42.630Z,39.36
2018-03-21T09:59:10.165Z,38.64
2018-03-21T10:01:37.637Z,39.56
2018-03-21T10:04:05.090Z,38.97
2018-03-21T10:06:32.575Z,39.26
2018-03-21T10:09:00.054Z,37.90
2018-03-21T10:11:27.484Z,38.42
2018-03-21T10:13:54.929Z,38.22
2018-03-21T10:16:22.375Z,37.30
2018-03-21T10:18:49.824Z,38.62
2018-03-21T10:21:17.302Z,37.99
2018-03-21T10:23:44.749Z,37.58
2018-03-21T10:26:12.276Z,37.38
2018-03-21T10:28:39.744Z,36.18
2018-03-21T10:31:07.271Z,36.79
2018-03-21T10:33:34.717Z,36.60
2018-03-21T10:36:02.218Z,35.49
2018-03-21T10:38:29.700Z,36.79
2018-03-21T10:40:57.214Z,36.96
2018-03-21T10:43:24.702Z,36.03
2018-03-21T10:45:52.155Z,36.36
2018-03-21T10:48:19.650Z,36.97
2018-03-21T10:50:47.117Z,35.71
2018-03-21T10:53:14.606Z,35.41
2018-03-21T10:55:43.909Z,34.87
2018-03-21T10:58:13.179Z,35.62
2018-03-21T11:00:42.902Z,37.33
2018-03-21T11:03:12.213Z,36.88
2018-03-21T11:05:39.671Z,37.75
2018-03-21T11:08:07.149Z,34.97
2018-03-21T11:10:34.858Z,35.56
2018-03-21T11:13:02.316Z,34.57
2018-03-21T11:15:29.773Z,33.40
2018-03-21T11:17:57.256Z,35.27
2018-03-21T11:20:24.701Z,33.84
2018-03-21T11:22:52.153Z,33.82
2018-03-21T11:25:19.846Z,34.65
2018-03-21T11:27:47.289Z,30.87
2018-03-21T11:30:14.752Z,30.17
2018-03-21T11:32:42.253Z,31.27
2018-03-21T11:35:09.725Z,32.18
2018-03-21T11:37:37.173Z,31.76
2018-03-21T11:40:04.623Z,29.39
2018-03-21T11:42:32.080Z,30.08
2018-03-21T11:44:59.556Z,30.09
2018-03-21T11:47:27.010Z,29.93
2018-03-21T11:49:54.493Z,33.35
2018-03-21T11:52:21.995Z,31.76
2018-03-21T11:54:49.478Z,32.24
2018-03-21T11:57:17.041Z,30.22
2018-03-21T11:59:44.494Z,30.36
2018-03-21T12:02:12.004Z,31.58
2018-03-21T12:04:39.479Z,31.26
2018-03-21T12:07:06.962Z,29.84
2018-03-21T12:09:34.547Z,25.72
2018-03-21T12:12:02.001Z,24.21
2018-03-21T12:14:29.466Z,23.05
2018-03-21T12:16:56.906Z,22.34
2018-03-21T12:19:24.343Z,21.77
2018-03-21T12:21:51.794Z,22.12
2018-03-21T12:24:19.291Z,22.10
2018-03-21T12:26:46.755Z,21.09
2018-03-21T12:29:20.585Z,20.98
2018-03-21T12:31:48.073Z,23.60
2018-03-21T12:34:15.563Z,22.37
2018-03-21T12:36:43.013Z,20.57
2018-03-21T12:39:10.463Z,19.46
2018-03-21T12:41:37.915Z,17.79
2018-03-21T12:44:05.378Z,15.95
2018-03-21T12:46:32.835Z,16.17
2018-03-21T12:49:00.331Z,14.45
2018-03-21T12:51:27.777Z,14.02
2018-03-21T12:53:55.236Z,15.32
2018-03-21T12:56:22.764Z,17.45
2018-03-21T12:58:50.126Z,20.63
2018-03-21T13:01:17.801Z,22.39
2018-03-21T13:03:45.233Z,24.20
2018-03-21T13:06:12.965Z,24.63
2018-03-21T13:08:40.487Z,21.81
2018-03-21T13:11:08.114Z,17.07
2018-03-21T13:13:35.617Z,14.20
2018-03-21T13:16:03.071Z,13.09
2018-03-21T13:18:32.549Z,10.85
2018-03-21T13:21:00.023Z,12.19
2018-03-21T13:23:27.489Z,12.95
2018-03-21T13:25:54.933Z,10.84
2018-03-21T13:28:22.382Z,10.32
2018-03-21T13:30:49.858Z,9.16
2018-03-21T13:33:17.334Z,8.89
2018-03-21T13:35:45.618Z,6.36
2018-03-21T13:38:13.276Z,7.40
2018-03-21T13:40:41.643Z,7.70
2018-03-21T13:43:09.358Z,7.71
2018-03-21T13:45:36.885Z,8.23
2018-03-21T13:48:04.321Z,8.74
2018-03-21T13:50:34.222Z,8.33
2018-03-21T13:53:01.695Z,7.33
2018-03-21T13:55:29.137Z,7.02
2018-03-21T13:57:56.656Z,7.26
2018-03-21T14:00:24.336Z,6.61
2018-03-21T14:02:51.770Z,6.62
2018-03-21T14:05:19.376Z,5.95
2018-03-21T14:07:46.851Z,6.36
2018-03-21T14:10:14.357Z,6.61
2018-03-21T14:12:41.799Z,6.35
2018-03-21T14:15:09.574Z,6.36
2018-03-21T14:17:37.036Z,7.00
2018-03-21T14:20:04.506Z,7.18
2018-03-21T14:22:32.034Z,6.87
2018-03-21T14:24:59.509Z,6.48
2018-03-21T14:27:26.968Z,6.24
2018-03-21T14:29:54.458Z,6.86
2018-03-21T14:32:21.907Z,8.56
2018-03-21T14:34:49.506Z,7.69
2018-03-21T14:37:16.958Z,7.67
2018-03-21T14:39:44.423Z,7.71
2018-03-21T14:42:11.929Z,7.04
2018-03-21T14:44:39.406Z,8.17
2018-03-21T14:47:06.839Z,7.77
2018-03-21T14:49:34.353Z,7.23
2018-03-21T14:52:01.764Z,9.36
2018-03-21T14:54:29.194Z,8.06
2018-03-21T14:56:56.649Z,6.87
2018-03-21T14:59:24.079Z,8.07
2018-03-21T15:01:51.528Z,8.25
2018-03-21T15:04:18.989Z,7.67
2018-03-21T15:06:46.464Z,8.87
2018-03-21T15:09:13.929Z,8.67
2018-03-21T15:11:41.390Z,9.08
2018-03-21T15:14:08.816Z,9.33
2018-03-21T15:16:36.276Z,9.53
2018-03-21T15:19:03.741Z,10.01
2018-03-21T15:21:31.186Z,8.93
2018-03-21T15:23:58.628Z,8.55
2018-03-21T15:26:26.103Z,8.80
2018-03-21T15:28:53.564Z,7.46
2018-03-21T15:31:21.894Z,6.74
2018-03-21T15:33:49.398Z,8.15
2018-03-21T15:36:16.855Z,8.43
2018-03-21T15:38:44.310Z,7.88
2018-03-21T15:41:11.759Z,7.12
2018-03-21T15:43:39.221Z,9.03
2018-03-21T15:46:06.727Z,9.12
2018-03-21T15:48:34.168Z,8.60
2018-03-21T15:51:01.598Z,8.07
2018-03-21T15:53:29.045Z,9.15
2018-03-21T15:55:56.477Z,8.29
2018-03-21T15:58:23.947Z,9.14
2018-03-21T16:00:51.400Z,8.82
2018-03-21T16:03:18.873Z,11.37
2018-03-21T16:05:46.322Z,10.88
2018-03-21T16:08:13.833Z,10.81
2018-03-21T16:10:41.273Z,9.88
2018-03-21T16:13:08.712Z,9.86
2018-03-21T16:15:36.154Z,8.93
2018-03-21T16:18:03.627Z,9.25
2018-03-21T16:20:31.065Z,10.42
2018-03-21T16:22:58.507Z,11.04
2018-03-21T16:25:25.940Z,10.51
2018-03-21T16:27:53.395Z,11.15
2018-03-21T16:30:20.858Z,11.64
2018-03-21T16:32:48.404Z,11.12
2018-03-21T16:35:15.847Z,11.34
2018-03-21T16:37:43.302Z,10.74
2018-03-21T16:40:10.769Z,9.55
2018-03-21T16:42:38.215Z,10.65
2018-03-21T16:45:05.653Z,9.76
2018-03-21T16:47:33.111Z,10.90
2018-03-21T16:50:00.585Z,10.74
2018-03-21T16:52:28.030Z,11.98
2018-03-21T16:54:55.539Z,11.88
2018-03-21T16:57:22.974Z,11.74
2018-03-21T16:59:50.425Z,13.18
2018-03-21T17:02:17.864Z,15.62
2018-03-21T17:04:45.333Z,20.33
2018-03-21T17:07:12.787Z,20.39
2018-03-21T17:09:40.273Z,21.79
2018-03-21T17:12:07.700Z,22.51
2018-03-21T17:14:35.175Z,22.54
2018-03-21T17:17:02.668Z,22.08
2018-03-21T17:19:30.134Z,23.64
2018-03-21T17:21:57.693Z,25.14
2018-03-21T17:24:25.247Z,27.34
2018-03-21T17:26:52.642Z,28.01
2018-03-21T17:29:20.111Z,27.42
2018-03-21T17:31:47.719Z,29.42
2018-03-21T17:34:15.175Z,28.81
2018-03-21T17:36:42.654Z,27.62
2018-03-21T17:39:10.094Z,30.17
2018-03-21T17:41:37.562Z,30.87
2018-03-21T17:44:05.110Z,31.52
2018-03-21T17:46:32.574Z,31.33
2018-03-21T17:49:00.053Z,32.18
2018-03-21T17:51:27.514Z,30.39
2018-03-21T17:53:54.953Z,32.14
2018-03-21T17:56:22.426Z,32.95
2018-03-21T17:58:49.916Z,33.49
2018-03-21T18:01:17.355Z,33.35
2018-03-21T18:03:44.790Z,31.59
2018-03-21T18:06:12.242Z,32.25
2018-03-21T18:08:39.728Z,33.58
2018-03-21T18:11:07.194Z,32.21
2018-03-21T18:13:34.634Z,32.83
2018-03-21T18:16:02.114Z,32.50
2018-03-21T18:18:29.567Z,31.97
2018-03-21T18:20:57.033Z,29.23
2018-03-21T18:23:26.018Z,30.13
2018-03-21T18:25:53.748Z,32.21
2018-03-21T18:28:21.214Z,32.45
2018-03-21T18:30:48.661Z,31.39
2018-03-21T18:33:16.153Z,32.50
2018-03-21T18:35:44.408Z,33.23
2018-03-21T18:38:11.900Z,35.83
2018-03-21T18:40:40.175Z,33.76
2018-03-21T18:43:07.836Z,33.71
2018-03-21T18:45:35.309Z,34.54
2018-03-21T18:48:02.750Z,34.51
2018-03-21T18:50:30.711Z,34.80
2018-03-21T18:52:58.148Z,34.97
2018-03-21T18:55:25.653Z,35.95
2018-03-21T18:57:53.108Z,35.86
2018-03-21T19:00:20.568Z,36.25
2018-03-21T19:02:48.020Z,36.45
2018-03-21T19:05:15.643Z,38.13
2018-03-21T19:07:43.122Z,38.72
2018-03-21T19:10:10.707Z,38.12
2018-03-21T19:12:39.256Z,37.83
2018-03-21T19:15:06.729Z,37.73
2018-03-21T19:17:34.216Z,38.69
2018-03-21T19:20:01.711Z,38.12
2018-03-21T19:22:29.461Z,38.80
2018-03-21T19:24:56.924Z,38.90
2018-03-21T19:27:25.472Z,38.61
2018-03-21T19:29:52.941Z,39.36
2018-03-21T19:32:20.403Z,39.69
2018-03-21T19:34:47.882Z,39.83
2018-03-21T19:37:15.339Z,41.15
2018-03-21T19:39:42.927Z,40.89
2018-03-21T19:42:10.345Z,40.96
2018-03-21T19:44:37.962Z,42.51
2018-03-21T19:47:05.459Z,43.68
2018-03-21T19:49:33.055Z,44.49
2018-03-21T19:52:00.592Z,44.68
2018-03-21T19:54:28.601Z,45.17
2018-03-21T19:56:56.068Z,45.14
2018-03-21T19:59:23.579Z,45.54
2018-03-21T20:01:51.057Z,45.13
2018-03-21T20:04:22.231Z,45.94
2018-03-21T20:06:49.724Z,45.45
2018-03-21T20:09:17.292Z,46.10
2018-03-21T20:11:44.758Z,46.60
2018-03-21T20:14:12.217Z,46.95
2018-03-21T20:16:39.687Z,47.74
2018-03-21T20:19:07.145Z,48.18
2018-03-21T20:21:34.595Z,48.72
2018-03-21T20:24:02.052Z,48.97
2018-03-21T20:26:29.720Z,48.90
2018-03-21T20:28:57.176Z,48.68
2018-03-21T20:31:24.650Z,48.64
2018-03-21T20:33:52.110Z,48.68
2018-03-21T20:36:19.575Z,48.19
2018-03-21T20:38:47.094Z,48.05
2018-03-21T20:41:14.850Z,48.40
2018-03-21T20:43:42.315Z,48.88
2018-03-21T20:46:10.206Z,49.21
2018-03-21T20:48:37.691Z,49.11
2018-03-21T20:51:05.142Z,48.61
2018-03-21T20:53:32.638Z,48.53
2018-03-21T20:56:00.107Z,49.44
2018-03-21T20:58:27.607Z,49.54
2018-03-21T21:00:55.103Z,50.83
2018-03-21T21:03:22.605Z,51.71
2018-03-21T21:05:50.058Z,51.68
2018-03-21T21:08:17.503Z,50.36
2018-03-21T21:10:44.963Z,50.58
2018-03-21T21:13:12.447Z,50.85
2018-03-21T21:15:39.885Z,50.34
2018-03-21T21:18:07.346Z,50.51
2018-03-21T21:20:34.796Z,50.79
2018-03-21T21:23:03.009Z,50.37
2018-03-21T21:25:30.571Z,50.58
2018-03-21T21:27:58.092Z,50.90
2018-03-21T21:30:25.579Z,50.40
2018-03-21T21:32:53.167Z,50.75
2018-03-21T21:35:20.726Z,51.55
2018-03-21T21:37:49.236Z,51.66
2018-03-21T21:40:16.691Z,51.49
2018-03-21T21:42:44.149Z,51.82
2018-03-21T21:45:11.614Z,51.52
2018-03-21T21:47:39.053Z,52.04
2018-03-21T21:50:06.510Z,52.31
2018-03-21T21:52:34.008Z,52.85
2018-03-21T21:55:01.451Z,53.09
2018-03-21T21:57:28.923Z,53.05
2018-03-21T21:59:56.402Z,53.23
2018-03-21T22:02:23.842Z,53.74
2018-03-21T22:04:51.272Z,53.78
2018-03-21T22:07:18.881Z,54.18
2018-03-21T22:09:46.363Z,53.95
2018-03-21T22:12:29.484Z,53.73
2018-03-21T22:14:56.917Z,54.25
2018-03-21T22:17:24.424Z,54.70
2018-03-21T22:19:51.863Z,54.68
2018-03-21T22:22:19.349Z,55.27
2018-03-21T22:24:46.837Z,55.46
2018-03-21T22:27:14.354Z,56.33
2018-03-21T22:29:41.938Z,56.67
2018-03-21T22:32:09.370Z,56.70
2018-03-21T22:34:36.896Z,56.91
2018-03-21T22:37:04.370Z,57.42
2018-03-21T22:39:31.842Z,57.13
2018-03-21T22:42:05.818Z,57.42
2018-03-21T22:44:33.537Z,57.47
2018-03-21T22:47:03.111Z,57.70
2018-03-21T22:49:35.033Z,57.59
2018-03-21T22:52:07.464Z,58.02
2018-03-21T22:54:39.916Z,58.70
2018-03-21T22:57:07.364Z,58.71
2018-03-21T22:59:34.834Z,59.58
2018-03-21T23:02:02.366Z,60.33
2018-03-21T23:04:29.902Z,60.55
2018-03-21T23:06:57.342Z,60.14
2018-03-21T23:09:24.784Z,60.17
2018-03-21T23:11:52.282Z,60.56
2018-03-21T23:14:19.858Z,60.79
2018-03-21T23:16:47.308Z,61.11
2018-03-21T23:19:14.810Z,61.03
2018-03-21T23:21:42.413Z,61.04
2018-03-21T23:24:10.042Z,60.98
2018-03-21T23:26:37.622Z,61.14
2018-03-21T23:29:05.085Z,61.00
2018-03-21T23:31:32.601Z,60.81
2018-03-21T23:34:00.043Z,60.66
2018-03-21T23:36:27.643Z,60.78
2018-03-21T23:38:55.125Z,61.37
2018-03-21T23:41:22.553Z,61.57
2018-03-21T23:43:52.535Z,62.06
2018-03-21T23:46:20.018Z,62.05
2018-03-21T23:48:47.454Z,61.79
2018-03-21T23:51:14.902Z,62.03
2018-03-21T23:53:42.342Z,62.59
2018-03-21T23:56:09.814Z,62.86
2018-03-21T23:58:37.257Z,62.57
